^^
Datos históricos de la estación: Murcia-Puente Tocinos
Diario Informe para Octubre 26, 2021 Unidades:  Ingés    Métrico   Ambas
Diario Semanal Mensual Anual
  Máxima: Mínima: Promedio:
Temperatura: 69.1 °F 57.7 °F 62.8 °F
Punto de rocio: 60.8 °F 52.9 °F 56.1 °F
Humedad: 92% 64% 79%
Velocidad viento: 7.6mph 0mph 3.5mph
Racha viento: 12.7mph - -
Viento- - SE
Presión: 30.2 in 30.1 in -
Precipitación: 0.25 in    
 
 
Tabla de datos para Octubre 26, 2021
Hora Temperatura Punto de rocio Presión Viento Velocidad viento Racha viento Humedad Intensidad lluvia(por hora) Nubes
00:04 61 °F 55.9 °F 30.1 in ENE 2 mph 2.9 mph 83.5% 0 in
00:09 61 °F 55.9 °F 30.1 in ENE 1.8 mph   84% 0 in
00:14 60.8 °F 55.9 °F 30.1 in ENE 1.4 mph 2.9 mph 84% 0 in
00:19 60.6 °F 55.8 °F 30.1 in ENE 0.9 mph 1.2 mph 84% 0 in
00:24 60.6 °F 55.8 °F 30.1 in Calm     84.1% 0 in
00:29 60.6 °F 56.1 °F 30.1 in Calm   1.4 mph 85% 0 in
00:34 60.6 °F 56.1 °F 30.1 in Calm     85% 0 in
00:39 60.6 °F 56.1 °F 30.1 in Calm     85% 0 in
00:44 60.6 °F 56.1 °F 30.1 in Calm   2.4 mph 85% 0 in
00:49 60.6 °F 56.1 °F 30.1 in ENE 0.6 mph 2.4 mph 85% 0 in
00:54 60.6 °F 56.1 °F 30.1 in ENE 1.4 mph 2.3 mph 85% 0 in
00:59 60.6 °F 56.1 °F 30.1 in ENE 0.8 mph 2.4 mph 85% 0 in
01:04 60.6 °F 56.1 °F 30.1 in Calm   3.5 mph 85% 0 in
01:09 60.6 °F 56.1 °F 30.1 in ENE 0.7 mph 2.4 mph 85.1% 0 in
01:14 60.6 °F 56.3 °F 30.1 in ENE 1.8 mph 3.6 mph 85.7% 0 in
01:19 60.6 °F 56.1 °F 30.1 in ENE 1.9 mph 3.6 mph 85% 0 in
01:24 60.4 °F 55.9 °F 30.1 in ENE 2 mph 4.6 mph 85% 0 in
01:29 60.4 °F 55.9 °F 30.1 in ENE 2.2 mph 4.6 mph 85% 0 in
01:34 60.4 °F 55.9 °F 30.1 in ENE 2.4 mph 3.5 mph 85% 0 in
01:39 60.4 °F 55.9 °F 30.1 in ENE 2.2 mph 2.9 mph 85% 0 in
01:44 60.4 °F 55.9 °F 30.1 in ENE 2 mph 1.2 mph 85% 0 in
01:49 60.3 °F 55.8 °F 30.1 in ENE 1.2 mph   85% 0 in
01:54 60.3 °F 55.8 °F 30.1 in Calm   2.4 mph 85% 0 in
01:59 60.3 °F 55.8 °F 30.1 in Calm     85.1% 0 in
02:04 60.3 °F 55.8 °F 30.1 in Calm   3.6 mph 85.1% 0 in
02:09 60.1 °F 55.8 °F 30.1 in ENE 0.6 mph 3.5 mph 85.4% 0 in
02:14 60.1 °F 55.9 °F 30.1 in ENE 1.8 mph 3.5 mph 86% 0 in
02:19 59.9 °F 55.4 °F 30.1 in ENE 1.8 mph 3.6 mph 85.3% 0 in
02:24 59.5 °F 55 °F 30.1 in ENE 1.8 mph 3.5 mph 85% 0 in
02:29 59.4 °F 54.9 °F 30.1 in Este 2.1 mph 4.6 mph 85% 0 in
02:34 59.2 °F 54.9 °F 30.1 in SE 2.4 mph 5.9 mph 85.4% 0 in
02:39 58.8 °F 54.7 °F 30.1 in SSE 3 mph 6.2 mph 86% 0 in
02:44 58.6 °F 54.5 °F 30.1 in Sur 4 mph 6.2 mph 86% 0 in
02:49 58.6 °F 54.7 °F 30.1 in Sur 4 mph 5.8 mph 86.6% 0 in
02:54 58.6 °F 54.9 °F 30.1 in Sur 4 mph 4.7 mph 87% 0 in
02:59 58.6 °F 54.9 °F 30.1 in Sur 3.7 mph 4.6 mph 87% 0 in
03:04 58.8 °F 55 °F 30.1 in SSO 3.1 mph 3.6 mph 87% 0 in
03:09 58.8 °F 54.9 °F 30.1 in SO 2.9 mph 4.6 mph 86.4% 0 in
03:14 58.8 °F 54.7 °F 30.1 in SSO 2.4 mph 4.6 mph 86% 0 in
03:19 59 °F 54.7 °F 30.1 in Sur 2.6 mph 4.7 mph 86% 0 in
03:24 59 °F 54.9 °F 30.1 in SO 2.9 mph 4.6 mph 86% 0 in
03:29 59.2 °F 55 °F 30.1 in OSO 2.9 mph 4.6 mph 86% 0 in
03:34 59.2 °F 55 °F 30.1 in OSO 2.9 mph 4.6 mph 86% 0 in
03:39 59 °F 54.9 °F 30.1 in Oeste 2.9 mph 4.6 mph 86% 0 in
03:44 58.8 °F 54.7 °F 30.1 in OSO 2.9 mph 4.6 mph 86% 0 in
03:49 58.6 °F 54.5 °F 30.1 in OSO 2.9 mph 4.6 mph 86% 0 in
03:54 58.6 °F 54.5 °F 30.1 in SSO 2.9 mph 4.7 mph 86% 0 in
03:59 58.6 °F 54.5 °F 30.1 in SSO 3 mph 5.8 mph 86% 0 in
04:04 58.6 °F 54.5 °F 30.1 in SO 3.1 mph 5.2 mph 86% 0 in
04:09 58.8 °F 54.7 °F 30.1 in SO 3.1 mph 4.7 mph 86% 0 in
04:14 58.8 °F 54.7 °F 30.1 in SO 3.1 mph 4.6 mph 86% 0 in
04:19 58.8 °F 54.7 °F 30.1 in Sur 2.9 mph 4.7 mph 86% 0 in
04:24 58.8 °F 54.7 °F 30.1 in SE 2.4 mph 4.7 mph 86% 0 in
04:29 58.6 °F 54.5 °F 30.1 in SSE 2.7 mph 6.2 mph 86% 0 in
04:34 58.6 °F 54.5 °F 30.1 in Sur 3.1 mph 5.8 mph 86% 0 in
04:39 58.5 °F 54.3 °F 30.1 in Sur 3.5 mph 7.4 mph 86% 0 in
04:44 58.5 °F 54.3 °F 30.1 in SSO 4 mph 6.9 mph 86.5% 0 in
04:49 58.3 °F 54.3 °F 30.1 in SSO 4.5 mph 7.4 mph 87% 0 in
04:54 58.3 °F 54.3 °F 30.1 in SSO 5.2 mph 8.1 mph 87% 0 in
04:59 58.3 °F 54.3 °F 30.1 in SSO 5.3 mph 8.1 mph 87% 0 in
05:04 58.1 °F 54.1 °F 30.1 in SSO 5.4 mph 7.4 mph 87% 0 in
05:09 58.1 °F 54.1 °F 30.1 in SSO 5.3 mph 8.1 mph 87% 0 in
05:14 58.1 °F 54.1 °F 30.1 in SO 5.2 mph 6.2 mph 87% 0 in
05:19 58.1 °F 54.1 °F 30.1 in SO 4.7 mph 5.9 mph 87% 0 in
05:24 58.1 °F 54.1 °F 30.1 in SO 4 mph 6.9 mph 86.6% 0 in
05:29 58.1 °F 54 °F 30.1 in SO 4 mph 6.9 mph 86% 0 in
05:34 58.3 °F 54 °F 30.1 in SO 4 mph 6.2 mph 86% 0 in
05:39 58.3 °F 54.1 °F 30.1 in SO 4 mph 6.9 mph 86% 0 in
05:44 58.3 °F 54.1 °F 30.1 in SO 4 mph 7.4 mph 86% 0 in
05:49 58.3 °F 54.1 °F 30.1 in SSO 3.9 mph 5.4 mph 86% 0 in
05:54 58.3 °F 54 °F 30.1 in SSO 3.6 mph 5.8 mph 86% 0 in
05:59 58.3 °F 54.1 °F 30.1 in Sur 3.6 mph 5.9 mph 86% 0 in
06:04 58.3 °F 54.1 °F 30.1 in Sur 3.6 mph 6.2 mph 86% 0 in
06:09 58.1 °F 54 °F 30.1 in SSO 3.6 mph 4.7 mph 86% 0 in
06:14 58.1 °F 54 °F 30.1 in SSO 3.6 mph 4.6 mph 86% 0 in
06:19 58.1 °F 54 °F 30.1 in SSO 3.4 mph 5.4 mph 86% 0 in
06:24 58.1 °F 54 °F 30.1 in SSO 2.9 mph 5.8 mph 86% 0 in
06:29 58.3 °F 54.1 °F 30.1 in SO 3.2 mph 5.9 mph 86% 0 in
06:34 58.3 °F 54.1 °F 30.1 in SO 3.6 mph 7.4 mph 86% 0 in
06:39 58.3 °F 54 °F 30.1 in SO 3.9 mph 8.1 mph 85.6% 0 in
06:44 58.5 °F 54 °F 30.1 in SO 4.3 mph 6.2 mph 85% 0 in
06:49 58.5 °F 54 °F 30.1 in SO 4.3 mph 6.2 mph 85% 0 in
06:54 58.5 °F 54 °F 30.1 in SO 4.3 mph 6.2 mph 85% 0 in
06:59 58.5 °F 53.6 °F 30.1 in SO 4.2 mph 5.8 mph 84% 0 in
07:04 58.5 °F 53.6 °F 30.1 in SSO 4 mph 5.8 mph 84% 0 in
07:09 58.5 °F 53.6 °F 30.1 in Sur 3.7 mph 6.9 mph 84% 0 in
07:14 58.5 °F 53.6 °F 30.1 in SSO 3.1 mph 5.9 mph 84% 0 in
07:19 58.5 °F 53.6 °F 30.1 in Sur 3.4 mph 5.8 mph 84% 0 in
07:24 58.5 °F 53.6 °F 30.1 in SSO 4 mph 6.2 mph 84% 0 in
07:29 58.5 °F 53.6 °F 30.1 in SSO 4 mph 6.9 mph 84% 0 in
07:34 58.5 °F 53.6 °F 30.1 in SSO 4 mph 6.9 mph 84% 0 in
07:39 58.5 °F 53.6 °F 30.1 in SSO 4.1 mph 7.6 mph 84% 0 in
07:44 58.5 °F 53.6 °F 30.1 in SSO 4.3 mph 8.1 mph 83.8% 0 in
07:49 58.5 °F 53.2 °F 30.1 in SSO 4.3 mph 7.4 mph 83.1% 0 in
07:54 58.5 °F 53.2 °F 30.1 in SSO 4.3 mph 6.2 mph 83% 0 in
07:59 58.3 °F 53.2 °F 30.1 in SO 4.2 mph 6.2 mph 83% 0 in
08:04 58.3 °F 53.1 °F 30.1 in SSO 4 mph 5.9 mph 83% 0 in
08:09 58.3 °F 53.1 °F 30.1 in SSO 3.9 mph 7.4 mph 83% 0 in
08:14 58.1 °F 53.1 °F 30.1 in SSO 3.6 mph 5.9 mph 83.4% 0 in
08:19 57.9 °F 53.1 °F 30.1 in SSO 3.7 mph 8.1 mph 84% 0 in
08:24 57.9 °F 53.1 °F 30.1 in SSO 4 mph 7.4 mph 84% 0 in
08:29 57.9 °F 53.1 °F 30.1 in SSO 4.1 mph 6.2 mph 84% 0 in
08:34 57.9 °F 53.1 °F 30.1 in SSO 4.3 mph 8.1 mph 84% 0 in
08:39 57.7 °F 53.1 °F 30.1 in SSO 4.6 mph 8.5 mph 84% 0 in
08:44 57.7 °F 52.9 °F 30.1 in SSO 5.2 mph 9.7 mph 84% 0 in
08:49 57.9 °F 53.1 °F 30.1 in SSO 5.6 mph 10.4 mph 84% 0 in
08:54 57.9 °F 53.1 °F 30.1 in SSO 6.2 mph 8.5 mph 84% 0 in
08:59 58.3 °F 53.4 °F 30.1 in SSO 6.2 mph 11.2 mph 84% 0 in
09:04 58.5 °F 53.6 °F 30.1 in SSO 6.2 mph 11.5 mph 84% 0 in
09:09 58.5 °F 53.2 °F 30.2 in SSO 6.5 mph 11.5 mph 83% 0 in
09:14 58.5 °F 53.2 °F 30.2 in SSO 6.9 mph 11.5 mph 83% 0 in
09:19 58.5 °F 53.2 °F 30.2 in SSO 7.1 mph 11.5 mph 83% 0 in
09:24 58.5 °F 53.2 °F 30.2 in SSO 7.6 mph 12.3 mph 83% 0 in
09:29 58.5 °F 53.2 °F 30.2 in SO 7.5 mph 12.7 mph 83% 0 in
09:34 58.5 °F 53.2 °F 30.2 in SSO 7.4 mph 10.7 mph 83% 0 in
09:39 58.5 °F 53.2 °F 30.2 in SO 6.8 mph 10.4 mph 83% 0 in
09:44 58.6 °F 53.4 °F 30.2 in SSO 5.9 mph 8.5 mph 83% 0 in
09:49 58.6 °F 53.4 °F 30.2 in SSO 5.9 mph 8.1 mph 83% 0 in
09:54 58.8 °F 53.6 °F 30.2 in SSO 5.9 mph 8.7 mph 83% 0 in
09:59 59 °F 53.8 °F 30.2 in SSO 5.4 mph 9.2 mph 83% 0 in
10:04 59.2 °F 53.8 °F 30.2 in SSO 4.7 mph 8.1 mph 82.2% 0 in
10:09 59.4 °F 53.8 °F 30.2 in SSO 4.7 mph 8.1 mph 82% 0 in
10:14 59.5 °F 54 °F 30.2 in SO 4.7 mph 6.9 mph 82% 0 in
10:19 59.7 °F 54.1 °F 30.2 in SO 4.7 mph 8.1 mph 82% 0 in
10:24 59.9 °F 54.1 °F 30.2 in OSO 4.7 mph 6.9 mph 81.4% 0 in
10:29 60.1 °F 54.3 °F 30.2 in OSO 4.3 mph 5.9 mph 81% 0 in
10:34 60.3 °F 54.1 °F 30.2 in SO 3.6 mph 8.1 mph 80.1% 0 in
10:39 60.4 °F 54.3 °F 30.2 in SSO 3.7 mph 6.2 mph 80% 0 in
10:44 60.6 °F 54.5 °F 30.2 in SSO 4 mph 6.9 mph 80% 0 in
10:49 61 °F 54.3 °F 30.2 in SO 4 mph 6.9 mph 79.2% 0 in
10:54 61 °F 54.3 °F 30.2 in SSO 4 mph 6.9 mph 79% 0 in
10:59 61 °F 54.3 °F 30.2 in SSO 4.1 mph 7.4 mph 78.8% 0 in
11:04 61 °F 54.1 °F 30.2 in SSO 4.3 mph 6.9 mph 78.2% 0 in
11:09 61 °F 54.1 °F 30.2 in SO 4.2 mph 8.1 mph 78% 0 in
11:14 61.2 °F 54.1 °F 30.2 in SO 4 mph 6.9 mph 78% 0 in
11:19 61.2 °F 54.1 °F 30.2 in SSO 4.1 mph 6.2 mph 78% 0 in
11:24 61.3 °F 54.3 °F 30.2 in SO 4.3 mph 5.8 mph 78% 0 in
11:29 61.3 °F 54.5 °F 30.2 in SO 4 mph 6.9 mph 78% 0 in
11:34 61.5 °F 54.5 °F 30.2 in SO 3.6 mph 8.1 mph 78% 0 in
11:39 61.5 °F 54.5 °F 30.2 in SO 4.2 mph 9.2 mph 77.8% 0 in
11:44 61.5 °F 54.3 °F 30.2 in SSO 5.2 mph 8.5 mph 77.4% 0 in
11:49 61.7 °F 54.3 °F 30.2 in SSO 5.2 mph 8.5 mph 77% 0 in
11:54 61.9 °F 54.5 °F 30.2 in SO 5.2 mph 9.7 mph 77% 0 in
11:59 62.1 °F 54.7 °F 30.2 in SSO 5 mph 6.9 mph 76.8% 0 in
12:04 62.1 °F 54.5 °F 30.2 in SSO 4.7 mph 6.9 mph 76.1% 0 in
12:09 62.2 °F 54.7 °F 30.2 in SSO 4.5 mph 8.1 mph 76.2% 0 in
12:14 62.4 °F 54.9 °F 30.2 in SSO 4.3 mph 6.9 mph 76% 0 in
12:19 62.6 °F 54.9 °F 30.2 in SSO 4.2 mph 7.4 mph 76% 0 in
12:24 62.8 °F 54.7 °F 30.2 in SO 4 mph 6.9 mph 75.2% 0 in
12:29 62.8 °F 54.7 °F 30.2 in SSO 4.1 mph 8.5 mph 75% 0 in
12:34 63 °F 54.9 °F 30.2 in SO 4.3 mph 6.9 mph 75% 0 in
12:39 63.1 °F 55 °F 30.2 in SSO 3.9 mph 6.9 mph 75% 0 in
12:44 63.1 °F 55.2 °F 30.2 in SSO 3.1 mph 5.2 mph 75% 0 in
12:49 63.5 °F 55.2 °F 30.2 in SSO 3 mph 5.2 mph 74.7% 0 in
12:54 63.7 °F 55.2 °F 30.2 in SSO 2.9 mph 6.9 mph 74.2% 0 in
12:59 63.9 °F 55.4 °F 30.2 in Sur 3.5 mph 8.5 mph 74% 0 in
13:04 64 °F 55.6 °F 30.2 in Sur 4.3 mph 8.5 mph 73.9% 0 in
13:09 64 °F 55.4 °F 30.2 in SSE 4.4 mph 6.9 mph 73.4% 0 in
13:14 64.2 °F 55.4 °F 30.2 in Sur 4.7 mph 7.4 mph 73% 0 in
13:19 64.2 °F 55.4 °F 30.2 in SSO 4.7 mph 7.4 mph 73% 0 in
13:24 64.4 °F 55.6 °F 30.2 in SSO 4.7 mph 5.9 mph 73% 0 in
13:29 64.6 °F 55.6 °F 30.2 in SO 4.1 mph 3.6 mph 72.6% 0 in
13:34 64.8 °F 55.6 °F 30.2 in SSO 3.1 mph 4.7 mph 72% 0 in
13:39 64.9 °F 55.6 °F 30.2 in SSE 2.9 mph 4.6 mph 71.8% 0 in
13:44 65.1 °F 55.6 °F 30.2 in SSE 2.4 mph 6.2 mph 71% 0 in
13:49 65.5 °F 55.8 °F 30.2 in SSE 2.9 mph 5.8 mph 71% 0 in
13:54 65.7 °F 55.8 °F 30.2 in SE 3.6 mph 4.6 mph 70.7% 0 in
13:59 65.7 °F 55.6 °F 30.2 in SSE 3.3 mph 5.9 mph 70% 0 in
14:04 65.8 °F 55.8 °F 30.2 in SE 2.9 mph 8.1 mph 70% 0 in
14:09 65.8 °F 55.8 °F 30.2 in SE 3.8 mph 8.1 mph 70% 0 in
14:14 65.8 °F 55.8 °F 30.2 in SE 5.4 mph 6.9 mph 70% 0 in
14:19 65.8 °F 55.8 °F 30.2 in SSE 5.2 mph 7.4 mph 70% 0 in
14:24 65.8 °F 55.8 °F 30.2 in SE 4.7 mph 6.9 mph 70% 0 in
14:29 66 °F 55.9 °F 30.1 in SE 4.7 mph 6.9 mph 70% 0 in
14:34 66 °F 55.6 °F 30.1 in SSE 4.7 mph 6.9 mph 69.1% 0 in
14:39 66.2 °F 55.8 °F 30.1 in SSE 4.5 mph 6.2 mph 69% 0 in
14:44 66.6 °F 55.9 °F 30.1 in SE 4.3 mph 6.4 mph 69% 0 in
14:49 66.6 °F 55.8 °F 30.1 in SE 4.3 mph 7.4 mph 68.1% 0 in
14:54 66.7 °F 55.8 °F 30.1 in SE 4.3 mph 5.9 mph 68% 0 in
14:59 66.7 °F 55.9 °F 30.1 in SSE 3.8 mph 5.4 mph 68% 0 in
15:04 66.9 °F 55.8 °F 30.1 in SSE 3.1 mph 5.8 mph 67.3% 0 in
15:09 67.1 °F 55.8 °F 30.1 in SSE 3.3 mph 5.2 mph 67% 0 in
15:14 67.3 °F 55.6 °F 30.1 in Sur 3.6 mph 3.5 mph 66% 0 in
15:19 67.5 °F 55.8 °F 30.1 in Sur 3 mph 4 mph 66% 0 in
15:24 67.6 °F 55.6 °F 30.1 in SSE 2 mph 4.6 mph 65.1% 0 in
15:29 67.8 °F 55.6 °F 30.1 in SE 2.1 mph 4.6 mph 65% 0 in
15:34 68.2 °F 55.9 °F 30.1 in SE 2.4 mph 3.6 mph 65% 0 in
15:39 68.2 °F 55.9 °F 30.1 in SE 2.2 mph 3.6 mph 65% 0 in
15:44 68.4 °F 56.1 °F 30.1 in Este 2 mph 3.5 mph 65% 0 in
15:49 68.5 °F 56.1 °F 30.1 in Este 1.8 mph 2.4 mph 64.4% 0 in
15:54 68.7 °F 55.9 °F 30.1 in NE 1.4 mph 5.8 mph 64% 0 in
15:59 68.7 °F 55.9 °F 30.1 in North 2.1 mph 6.9 mph 64% 0 in
16:04 68.7 °F 56.3 °F 30.1 in NNE 3.1 mph 7.4 mph 64.7% 0 in
16:09 68.7 °F 56.5 °F 30.1 in North 3.5 mph 6.9 mph 65% 0 in
16:14 68.7 °F 56.7 °F 30.1 in North 4.3 mph 6.9 mph 65.3% 0 in
16:19 68.7 °F 56.8 °F 30.1 in NNE 4 mph 6.9 mph 65.9% 0 in
16:24 68.7 °F 56.8 °F 30.1 in NE 3.6 mph 6.4 mph 66% 0 in
16:29 68.7 °F 57.2 °F 30.1 in NE 3.9 mph 6.9 mph 66.6% 0 in
16:34 68.7 °F 57.4 °F 30.1 in NNE 4.3 mph 5.8 mph 67% 0 in
16:39 68.7 °F 57.4 °F 30.1 in NNE 4.2 mph 7.4 mph 67% 0 in
16:44 68.7 °F 57.4 °F 30.1 in NNE 4 mph 5.9 mph 67% 0 in
16:49 68.7 °F 57.4 °F 30.1 in NNE 4 mph 7.4 mph 67.3% 0 in
16:54 68.7 °F 57.7 °F 30.1 in NNE 4 mph 6.2 mph 68% 0 in
16:59 68.7 °F 57.7 °F 30.1 in NE 4 mph 5.8 mph 68% 0 in
17:04 68.9 °F 57.9 °F 30.1 in NE 4 mph 6.2 mph 68% 0 in
17:09 68.9 °F 57.9 °F 30.1 in NE 4 mph 8.1 mph 68% 0 in
17:14 69.1 °F 58.1 °F 30.1 in NE 4 mph 8.1 mph 68% 0 in
17:19 69.1 °F 58.1 °F 30.1 in NE 4.1 mph 7.4 mph 68% 0 in
17:24 69.1 °F 58.1 °F 30.1 in NE 4.3 mph 8.1 mph 68% 0 in
17:29 68.9 °F 57.7 °F 30.1 in NE 4.7 mph 7.6 mph 67.3% 0 in
17:34 68.9 °F 57.9 °F 30.1 in NE 5.2 mph 7.4 mph 68% 0 in
17:39 68.7 °F 57.7 °F 30.1 in NE 5 mph 8.1 mph 68% 0 in
17:44 68.7 °F 57.7 °F 30.1 in NNE 4.7 mph 8.1 mph 68% 0 in
17:49 68.5 °F 57.7 °F 30.1 in NNE 4.7 mph 7.4 mph 68.3% 0 in
17:54 68.5 °F 57.9 °F 30.1 in NE 4.7 mph 8.5 mph 69% 0 in
17:59 68.4 °F 57.9 °F 30.1 in NNE 4.5 mph 5.9 mph 69% 0 in
18:04 68.4 °F 57.7 °F 30.1 in NE 4.3 mph 7.6 mph 69% 0 in
18:09 68.4 °F 57.7 °F 30.1 in NE 4.2 mph 8.1 mph 69% 0 in
18:14 68.4 °F 57.7 °F 30.1 in NE 4 mph 8.1 mph 69% 0 in
18:19 68.4 °F 57.7 °F 30.1 in NNE 4.1 mph 6.2 mph 69% 0 in
18:24 68.2 °F 57.7 °F 30.1 in NNE 4.3 mph 5.8 mph 69.2% 0 in
18:29 68.2 °F 57.9 °F 30.1 in NNE 4 mph 5.9 mph 70% 0 in
18:34 68.2 °F 57.9 °F 30.1 in NE 3.6 mph 5.8 mph 70% 0 in
18:39 68 °F 57.7 °F 30.1 in NE 3.6 mph 5.9 mph 70% 0 in
18:44 67.8 °F 57.7 °F 30.1 in NNE 3.6 mph 5.8 mph 70% 0 in
18:49 67.8 °F 57.9 °F 30.1 in NNE 3.6 mph 5.8 mph 70.5% 0 in
18:54 67.6 °F 57.9 °F 30.1 in NNE 3.6 mph 5.8 mph 71% 0 in
18:59 67.6 °F 57.9 °F 30.1 in NNE 3.6 mph 6.2 mph 71% 0 in
19:04 67.5 °F 57.9 °F 30.1 in NNE 3.6 mph 8.1 mph 71.5% 0 in
19:09 67.5 °F 58.1 °F 30.1 in NNE 4.2 mph 8.1 mph 72% 0 in
19:14 67.5 °F 58.1 °F 30.1 in NNE 5.2 mph 8.5 mph 72% 0 in
19:19 67.5 °F 58.1 °F 30.1 in NNE 5.3 mph 8.5 mph 72% 0 in
19:24 67.3 °F 57.9 °F 30.1 in NNE 5.4 mph 9.7 mph 72.1% 0 in
19:29 67.3 °F 58.3 °F 30.1 in NNE 5.3 mph 8.5 mph 73% 0 in
19:34 67.3 °F 58.3 °F 30.1 in NNE 5.2 mph 8.1 mph 73% 0 in
19:39 67.1 °F 58.5 °F 30.1 in NNE 5 mph 6.9 mph 73.9% 0 in
19:44 66.9 °F 58.5 °F 30.1 in NNE 4.7 mph 4.7 mph 74% 0 in
19:49 66.7 °F 58.6 °F 30.1 in North 4.1 mph 5.2 mph 74.9% 0 in
19:54 66.7 °F 58.6 °F 30.1 in NNE 3.1 mph 5.2 mph 75% 0 in
19:59 66.7 °F 58.8 °F 30.1 in NE 3 mph 3.6 mph 76% 0 in
20:04 66.6 °F 58.8 °F 30.1 in NE 2.9 mph 3.5 mph 76% 0 in
20:09 66.6 °F 58.8 °F 30.1 in NE 2.4 mph 2.4 mph 76% 0 in
20:14 66.6 °F 59 °F 30.1 in NE 1.4 mph 2.9 mph 76.7% 0 in
20:19 66.6 °F 59.2 °F 30.1 in NE 1.6 mph 4.7 mph 77% 0 in
20:24 66.4 °F 59.2 °F 30.1 in NE 1.8 mph 5.9 mph 77.5% 0 in
20:27 66.4 °F 59.4 °F 30.1 in NE 1.8 mph 5.8 mph 78% 0 in
20:34 66.4 °F 59.4 °F 30.1 in NE 3.6 mph 5.8 mph 78% 0 in
20:39 66.4 °F 59.5 °F 30.1 in NNE 3.6 mph 5.9 mph 78.9% 0 in
20:44 66.2 °F 59.5 °F 30.1 in NE 3.6 mph 5.2 mph 79% 0 in
20:49 66 °F 59.4 °F 30.1 in NNE 3.4 mph 5.2 mph 79% 0 in
20:54 66 °F 59.4 °F 30.1 in NNE 3.1 mph 3.6 mph 79% 0 in
20:59 65.8 °F 59.2 °F 30.1 in NNE 2.8 mph 3.6 mph 79.4% 0 in
21:04 65.8 °F 59.5 °F 30.1 in ENE 2.4 mph 4.6 mph 80% 0 in
21:09 65.8 °F 59.5 °F 30.2 in NE 2.2 mph 3.6 mph 80% 0 in
21:14 65.7 °F 59.4 °F 30.2 in NE 1.8 mph 3.6 mph 80% 0 in
21:19 65.7 °F 59.4 °F 30.2 in NE 1.9 mph 3.6 mph 80% 0 in
21:24 65.7 °F 59.4 °F 30.2 in NE 2 mph 3.5 mph 80% 0 in
21:29 65.7 °F 59.4 °F 30.1 in NE 1.7 mph 1.2 mph 80% 0 in
21:34 65.7 °F 59.5 °F 30.1 in NE 1.4 mph   80.7% 0 in
21:39 65.7 °F 59.7 °F 30.1 in NE 0.9 mph   81% 0 in
21:44 65.7 °F 59.7 °F 30.1 in Calm   3.1 mph 81% 0 in
21:49 65.7 °F 59.7 °F 30.1 in NE 0.7 mph 4 mph 81% 0 in
21:54 65.7 °F 59.7 °F 30.1 in NE 1.8 mph 4.6 mph 81% 0 in
21:59 65.7 °F 59.7 °F 30.1 in NE 1.9 mph 2.9 mph 81% 0 in
22:04 65.7 °F 59.7 °F 30.1 in NE 2 mph 2.4 mph 81% 0 in
22:09 65.7 °F 59.7 °F 30.2 in NE 1.8 mph 3.6 mph 81% 0 in
22:14 65.7 °F 59.7 °F 30.2 in NE 1.4 mph 8.1 mph 81% 0.01 in
22:19 65.7 °F 60.1 °F 30.2 in NNO 2.4 mph 8.5 mph 82.2% 0.07 in
22:24 65.3 °F 60.1 °F 30.2 in ONO 4 mph 6.2 mph 83.6% 0.12 in
22:29 64.9 °F 60.1 °F 30.2 in NO 3.7 mph 5.8 mph 84.3% 0.12 in
22:34 64.8 °F 60.3 °F 30.2 in NE 3.1 mph 7.6 mph 85.4% 0.12 in
22:39 64.2 °F 60.3 °F 30.2 in NNE 3.5 mph 8.7 mph 86.5% 0.15 in
22:44 64 °F 60.4 °F 30.2 in NO 4.3 mph 9.2 mph 87.6% 0.19 in
22:49 63.9 °F 60.4 °F 30.2 in NNO 4.2 mph 5.8 mph 88.4% 0.19 in
22:54 63.9 °F 60.6 °F 30.2 in NNE 4 mph 5.2 mph 89% 0.2 in
22:59 63.7 °F 60.6 °F 30.2 in ENE 3.5 mph 4.7 mph 89.8% 0.2 in
23:04 63.7 °F 60.6 °F 30.2 in ENE 2.9 mph 5.2 mph 90% 0.2 in
23:09 63.5 °F 60.6 °F 30.2 in NE 2.7 mph 4.6 mph 90.3% 0.2 in
23:14 63.5 °F 60.8 °F 30.2 in NE 2.4 mph 2.9 mph 91% 0.2 in
23:19 63.3 °F 60.6 °F 30.2 in NE 2.1 mph 2.4 mph 91% 0.18 in
23:24 63.3 °F 60.6 °F 30.2 in ENE 1.4 mph 3.6 mph 91% 0.1 in
23:29 63.3 °F 60.6 °F 30.2 in SE 1.6 mph 4.7 mph 91% 0.12 in
23:34 63.1 °F 60.6 °F 30.2 in SSO 2 mph 4.6 mph 91.1% 0.12 in
23:39 63.1 °F 60.8 °F 30.2 in SSO 1.7 mph 2.4 mph 92% 0.12 in
23:44 63.1 °F 60.8 °F 30.2 in SSO 1.4 mph 3.5 mph 92% 0.07 in
23:49 63.1 °F 60.8 °F 30.2 in Sur 1.6 mph 3.6 mph 92% 0.05 in
23:54 63.1 °F 60.8 °F 30.2 in Sur 2 mph 2.4 mph 92% 0.05 in
23:59 63.1 °F 60.8 °F 30.2 in SSE 1.7 mph 3.1 mph 92% 0.05 in
Murcia-Puente Tocinos, Espa?a
Compliments of Weather Underground - 3.25 mb

La estación de MeteoMurcia.com, publica sus datos en los siguientes proyectos:

Weather Underground PWS IMURCIAP2 Meteoclimatic www.awekas.at

W3Counter
Web Analytics